Time;durP1;ratioP1;P1;durP2;ratioP2;P2;SDS_P1;SDS_P2;PMS_P1;PMS_P2;Temp;Humidity;BMP_temperature;BMP_pressure;BME280_temperature;BME280_humidity;BME280_pressure;Samples;Min_cycle;Max_cycle;Signal;HPM_P1;HPM_P2
2021/04/22 00:01:53;;;;;;;31.73;22.37;;;;;;;11.85;74.11;100446.28;657825;217;25961;-75
2021/04/22 00:04:21;;;;;;;28.77;21.53;;;;;;;11.91;73.35;100450.89;651933;217;32578;-75
2021/04/22 00:06:49;;;;;;;30.90;21.57;;;;;;;11.87;73.71;100453.47;654856;217;24772;-75
2021/04/22 00:09:17;;;;;;;28.62;22.55;;;;;;;11.98;73.10;100459.77;651349;215;32567;-75
2021/04/22 00:11:45;;;;;;;34.90;21.73;;;;;;;11.87;73.87;100460.80;653259;217;23660;-75
2021/04/22 00:14:13;;;;;;;29.53;19.87;;;;;;;11.81;74.23;100461.85;656937;217;26266;-75
2021/04/22 00:16:41;;;;;;;27.93;20.73;;;;;;;11.77;74.26;100451.36;655694;217;24791;-75
2021/04/22 00:19:09;;;;;;;26.30;20.30;;;;;;;11.75;75.01;100460.63;656579;217;25158;-75
2021/04/22 00:21:37;;;;;;;26.10;19.70;;;;;;;11.68;74.36;100450.45;644971;220;24799;-75
2021/04/22 00:24:06;;;;;;;35.37;22.70;;;;;;;11.48;78.55;100464.07;642091;221;24807;-75
2021/04/22 00:26:34;;;;;;;36.13;21.90;;;;;;;11.14;81.63;100480.73;652118;219;24760;-75
2021/04/22 00:29:02;;;;;;;32.60;22.77;;;;;;;10.95;82.85;100484.67;642300;222;24796;-75
2021/04/22 00:31:30;;;;;;;30.77;21.50;;;;;;;10.89;82.22;100473.54;641518;221;24804;-75
2021/04/22 00:33:58;;;;;;;28.60;21.10;;;;;;;10.89;81.06;100455.33;646011;219;26962;-76
2021/04/22 00:36:26;;;;;;;32.47;25.33;;;;;;;10.89;80.74;100458.75;637196;221;24813;-75
2021/04/22 00:38:54;;;;;;;31.50;22.63;;;;;;;10.92;80.67;100464.14;656429;217;24785;-75
2021/04/22 00:41:22;;;;;;;29.83;21.73;;;;;;;10.86;80.81;100455.13;644436;221;24796;-75
2021/04/22 00:43:50;;;;;;;29.77;20.70;;;;;;;10.79;80.73;100466.23;647708;218;27931;-75
2021/04/22 00:46:18;;;;;;;32.93;20.83;;;;;;;10.83;79.86;100461.08;641205;222;24820;-75
2021/04/22 00:48:46;;;;;;;30.00;20.80;;;;;;;10.78;81.26;100471.09;638817;221;29062;-75
2021/04/22 00:51:14;;;;;;;32.07;21.00;;;;;;;10.76;80.50;100463.91;639023;222;24791;-75
2021/04/22 00:53:42;;;;;;;26.90;21.03;;;;;;;10.64;80.74;100473.65;644868;220;24824;-75
2021/04/22 00:56:10;;;;;;;32.80;19.77;;;;;;;10.56;81.25;100460.53;646523;221;24810;-75
2021/04/22 00:58:38;;;;;;;27.87;20.53;;;;;;;10.55;81.52;100470.09;646229;218;24755;-75
2021/04/22 01:01:06;;;;;;;29.27;20.40;;;;;;;10.44;81.31;100464.23;650163;218;24763;-75
2021/04/22 01:03:34;;;;;;;32.30;20.13;;;;;;;10.42;81.56;100477.86;640240;222;24948;-75
2021/04/22 01:06:02;;;;;;;33.47;21.53;;;;;;;10.29;82.79;100482.03;659919;217;24785;-75
2021/04/22 01:08:30;;;;;;;24.03;18.77;;;;;;;10.26;82.06;100484.40;646074;222;28018;-75
2021/04/22 01:10:57;;;;;;;28.37;21.50;;;;;;;10.22;82.25;100495.22;647062;221;24851;-75
2021/04/22 01:13:25;;;;;;;25.43;19.40;;;;;;;10.22;82.43;100489.53;644874;221;24887;-75
2021/04/22 01:15:53;;;;;;;29.67;20.40;;;;;;;10.20;81.93;100488.83;640787;222;24844;-75
2021/04/22 01:18:21;;;;;;;29.10;22.20;;;;;;;10.26;81.88;100482.28;622633;226;32905;-75
2021/04/22 01:20:49;;;;;;;30.63;20.57;;;;;;;10.16;82.61;100477.55;638664;220;24815;-75
2021/04/22 01:23:17;;;;;;;29.30;20.10;;;;;;;10.10;82.69;100478.41;642747;221;24819;-75
2021/04/22 01:25:45;;;;;;;27.10;18.93;;;;;;;10.13;82.78;100486.41;641921;221;24779;-75
2021/04/22 01:28:13;;;;;;;28.90;19.30;;;;;;;10.06;83.50;100494.41;653952;218;24857;-75
2021/04/22 01:30:42;;;;;;;30.30;19.80;;;;;;;10.06;83.68;100501.73;640305;221;24808;-75
2021/04/22 01:33:10;;;;;;;31.30;20.83;;;;;;;10.04;83.49;100504.13;655177;218;24785;-76
2021/04/22 01:35:38;;;;;;;25.23;20.20;;;;;;;10.15;82.63;100509.21;636928;221;33100;-75
2021/04/22 01:38:06;;;;;;;34.60;21.30;;;;;;;10.02;83.84;100503.45;644249;221;28001;-75
2021/04/22 01:40:34;;;;;;;27.83;18.40;;;;;;;9.90;83.31;100501.44;648505;218;24830;-75
2021/04/22 01:43:02;;;;;;;29.47;19.30;;;;;;;9.91;83.65;100503.08;644754;218;25103;-77
2021/04/22 01:45:30;;;;;;;26.90;19.50;;;;;;;9.95;83.57;100510.94;639500;221;32855;-75
2021/04/22 01:47:58;;;;;;;32.50;19.43;;;;;;;9.90;83.35;100513.12;649643;217;24949;-75
2021/04/22 01:50:25;;;;;;;28.23;19.87;;;;;;;9.84;84.25;100503.25;647340;218;24771;-75
2021/04/22 01:52:53;;;;;;;26.43;17.20;;;;;;;9.73;84.15;100517.67;647577;221;24759;-75
2021/04/22 01:55:21;;;;;;;27.20;19.23;;;;;;;9.78;84.20;100525.88;652627;217;33237;-75
2021/04/22 01:57:50;;;;;;;26.70;18.00;;;;;;;9.73;83.99;100528.87;652959;217;24824;-75
2021/04/22 02:00:19;;;;;;;22.33;16.40;;;;;;;9.61;84.66;100525.20;656205;218;24755;-75
2021/04/22 02:02:47;;;;;;;27.43;18.87;;;;;;;9.62;84.42;100526.84;645341;222;24805;-75
2021/04/22 02:05:15;;;;;;;25.20;16.97;;;;;;;9.60;85.14;100524.39;635965;222;25150;-75
2021/04/22 02:07:43;;;;;;;25.63;17.00;;;;;;;9.55;84.79;100531.73;647078;221;24812;-75
2021/04/22 02:10:11;;;;;;;25.90;17.20;;;;;;;9.47;85.87;100531.09;640764;222;24799;-75
2021/04/22 02:12:39;;;;;;;27.70;17.80;;;;;;;9.42;85.31;100537.13;646948;218;24801;-75
2021/04/22 02:15:08;;;;;;;25.00;16.83;;;;;;;9.38;85.56;100547.91;648236;218;24768;-75
2021/04/22 02:17:36;;;;;;;33.00;16.97;;;;;;;9.34;86.47;100549.13;647878;217;24760;-77
2021/04/22 02:20:07;;;;;;;26.30;16.97;;;;;;;9.24;86.30;100549.07;642303;221;24864;-77
2021/04/22 02:22:35;;;;;;;25.10;16.63;;;;;;;9.19;86.56;100552.54;642471;221;24807;-77
2021/04/22 02:25:04;;;;;;;23.00;16.50;;;;;;;9.15;87.04;100564.12;642696;221;24867;-75
2021/04/22 02:27:32;;;;;;;28.47;16.70;;;;;;;9.16;87.12;100557.52;643574;221;24788;-77
2021/04/22 02:30:00;;;;;;;27.67;17.27;;;;;;;9.03;87.22;100557.36;648360;221;24781;-77
2021/04/22 02:32:28;;;;;;;26.00;16.77;;;;;;;8.92;88.26;100563.42;652392;217;24862;-78
2021/04/22 02:34:56;;;;;;;26.10;16.30;;;;;;;8.98;87.01;100568.09;652000;218;24773;-75
2021/04/22 02:37:24;;;;;;;22.37;16.40;;;;;;;8.93;88.04;100562.47;636259;221;24867;-75
2021/04/22 02:39:52;;;;;;;23.80;15.57;;;;;;;8.82;87.79;100554.73;647132;221;24837;-75
2021/04/22 02:42:20;;;;;;;26.43;15.10;;;;;;;8.92;87.28;100565.54;643765;220;24806;-78
2021/04/22 02:44:47;;;;;;;25.60;16.27;;;;;;;8.90;87.56;100562.73;642542;221;24798;-78
2021/04/22 02:47:15;;;;;;;24.40;15.23;;;;;;;8.92;87.73;100564.24;641126;221;24980;-77
2021/04/22 02:49:43;;;;;;;24.70;14.77;;;;;;;8.81;88.12;100572.07;644667;221;24889;-77
2021/04/22 02:52:11;;;;;;;23.50;15.47;;;;;;;8.79;88.04;100569.26;636440;222;24830;-78
2021/04/22 02:54:39;;;;;;;30.70;16.03;;;;;;;8.78;87.28;100567.14;638596;222;24811;-75
2021/04/22 02:57:07;;;;;;;22.50;15.60;;;;;;;8.82;86.93;100563.34;641160;221;24862;-75
2021/04/22 02:59:35;;;;;;;27.33;15.10;;;;;;;8.75;87.87;100576.47;642247;221;24830;-75
2021/04/22 03:02:03;;;;;;;20.37;14.37;;;;;;;8.80;87.54;100582.58;639091;221;24800;-75
2021/04/22 03:04:31;;;;;;;22.60;14.43;;;;;;;8.75;87.08;100588.14;653034;217;26940;-75
2021/04/22 03:07:00;;;;;;;23.80;15.50;;;;;;;8.77;86.90;100590.61;649187;217;24808;-75
2021/04/22 03:09:28;;;;;;;21.37;15.80;;;;;;;8.75;87.28;100590.73;656711;217;24790;-75
2021/04/22 03:11:56;;;;;;;21.70;15.50;;;;;;;8.69;87.35;100597.70;657322;217;24754;-75
2021/04/22 03:14:23;;;;;;;24.70;14.07;;;;;;;8.66;87.76;100595.35;648359;217;24772;-75
2021/04/22 03:16:51;;;;;;;19.80;13.40;;;;;;;8.68;87.05;100598.64;648559;217;24772;-75
2021/04/22 03:19:19;;;;;;;26.13;15.90;;;;;;;8.59;87.02;100598.92;650821;217;24790;-75
2021/04/22 03:21:47;;;;;;;33.23;14.60;;;;;;;8.59;87.00;100601.99;649395;217;24797;-75
2021/04/22 03:24:16;;;;;;;21.10;13.50;;;;;;;8.50;87.35;100609.20;651665;217;24765;-75
2021/04/22 03:26:44;;;;;;;26.57;14.87;;;;;;;8.53;87.69;100608.95;650399;217;24815;-75
2021/04/22 03:29:11;;;;;;;24.20;13.57;;;;;;;8.49;88.03;100608.38;648593;217;24751;-75
2021/04/22 03:31:40;;;;;;;23.87;14.63;;;;;;;8.40;87.88;100612.16;657771;217;26921;-75
2021/04/22 03:34:08;;;;;;;23.13;14.10;;;;;;;8.39;87.59;100612.63;652140;217;24767;-75
2021/04/22 03:36:36;;;;;;;21.77;14.50;;;;;;;8.33;88.30;100612.63;657098;217;24801;-75
2021/04/22 03:39:05;;;;;;;18.80;13.43;;;;;;;8.29;88.61;100623.33;657765;217;24794;-75
2021/04/22 03:41:33;;;;;;;19.93;12.37;;;;;;;8.29;88.16;100616.37;649962;217;26921;-76
2021/04/22 03:44:01;;;;;;;22.20;13.20;;;;;;;8.25;88.57;100614.98;656058;217;24759;-75
2021/04/22 03:46:29;;;;;;;15.60;12.13;;;;;;;8.20;88.22;100618.89;656374;217;24859;-75
2021/04/22 03:48:57;;;;;;;19.73;11.50;;;;;;;8.18;88.20;100620.30;656790;217;24749;-76
2021/04/22 03:51:25;;;;;;;22.20;11.80;;;;;;;8.06;88.82;100629.02;656857;218;24774;-75
2021/04/22 03:53:53;;;;;;;20.17;11.10;;;;;;;8.05;88.59;100631.27;642850;221;25089;-76
2021/04/22 03:56:21;;;;;;;18.60;12.43;;;;;;;8.10;88.78;100630.90;640913;221;32758;-75
2021/04/22 03:58:49;;;;;;;21.27;12.82;;;;;;;8.23;88.31;100629.83;635887;220;32779;-75
2021/04/22 04:01:18;;;;;;;20.37;12.15;;;;;;;8.22;87.67;100633.84;636054;220;32814;-75
2021/04/22 04:03:46;;;;;;;20.10;11.47;;;;;;;8.05;87.76;100631.27;640699;221;23682;-75
2021/04/22 04:06:14;;;;;;;17.50;9.57;;;;;;;8.01;88.32;100637.60;650032;217;24780;-75
2021/04/22 04:08:42;;;;;;;18.90;11.70;;;;;;;7.90;88.95;100640.22;643523;221;24818;-78
2021/04/22 04:11:10;;;;;;;17.77;10.93;;;;;;;7.84;88.55;100642.78;640295;221;24827;-78
2021/04/22 04:13:38;;;;;;;18.33;10.03;;;;;;;7.88;88.42;100647.25;640426;222;24827;-78
2021/04/22 04:16:06;;;;;;;15.50;10.80;;;;;;;7.94;88.48;100648.09;642398;221;32812;-77
2021/04/22 04:18:34;;;;;;;14.63;9.60;;;;;;;7.78;87.84;100648.91;635454;224;23687;-75
2021/04/22 04:21:02;;;;;;;17.47;8.70;;;;;;;7.75;88.25;100652.56;639243;221;24802;-75
2021/04/22 04:23:30;;;;;;;16.00;8.90;;;;;;;7.72;88.09;100661.36;645397;221;24836;-74
2021/04/22 04:25:58;;;;;;;23.03;10.70;;;;;;;7.69;88.18;100659.02;654522;217;24789;-75
2021/04/22 04:28:26;;;;;;;16.37;8.33;;;;;;;7.64;88.08;100661.13;645552;221;24799;-75
2021/04/22 04:30:54;;;;;;;20.67;10.30;;;;;;;7.72;88.27;100666.54;640199;222;32824;-75
2021/04/22 04:33:23;;;;;;;12.57;7.73;;;;;;;7.74;87.83;100668.57;642784;222;24850;-75
2021/04/22 04:35:52;;;;;;;16.77;10.50;;;;;;;7.66;88.06;100670.89;643624;221;24831;-76
2021/04/22 04:38:20;;;;;;;17.30;8.80;;;;;;;7.62;88.55;100672.55;657023;218;25950;-75
2021/04/22 04:40:48;;;;;;;14.18;8.43;;;;;;;7.64;87.28;100672.78;647042;218;32589;-75
2021/04/22 04:43:15;;;;;;;18.50;8.27;;;;;;;7.64;87.51;100675.37;647182;217;23722;-77
2021/04/22 04:45:43;;;;;;;16.90;8.50;;;;;;;7.72;86.64;100679.95;646739;217;32720;-77
2021/04/22 04:48:12;;;;;;;16.77;8.83;;;;;;;7.61;86.48;100685.14;649193;221;24802;-76
2021/04/22 04:50:39;;;;;;;15.90;7.40;;;;;;;7.56;86.32;100685.92;631680;225;24861;-76
2021/04/22 04:53:07;;;;;;;18.77;8.10;;;;;;;7.63;85.56;100681.95;636576;222;24828;-75
2021/04/22 04:55:35;;;;;;;12.80;6.10;;;;;;;7.67;85.03;100688.08;640790;220;24844;-76
2021/04/22 04:58:03;;;;;;;14.87;7.23;;;;;;;7.62;85.46;100688.91;656268;217;24771;-75
2021/04/22 05:00:31;;;;;;;17.23;7.37;;;;;;;7.70;85.26;100703.38;648855;217;32583;-76
2021/04/22 05:02:59;;;;;;;13.58;6.97;;;;;;;7.67;84.47;100698.43;652137;217;32605;-76
2021/04/22 05:05:27;;;;;;;21.90;7.30;;;;;;;7.51;84.56;100699.22;651964;217;23706;-77
2021/04/22 05:07:55;;;;;;;13.37;6.17;;;;;;;7.45;84.95;100717.77;648920;221;24835;-77
2021/04/22 05:10:23;;;;;;;13.30;6.10;;;;;;;7.47;84.75;100716.39;642860;221;24800;-78
2021/04/22 05:12:53;;;;;;;15.00;6.40;;;;;;;7.37;84.78;100720.94;640635;221;25097;-76
2021/04/22 05:15:19;;;;;;;13.48;6.47;;;;;;;7.51;84.24;100726.39;640607;220;32798;-77
2021/04/22 05:17:47;;;;;;;13.72;5.80;;;;;;;7.60;82.96;100723.58;634059;221;32725;-76
2021/04/22 05:20:16;;;;;;;14.37;5.40;;;;;;;7.54;82.59;100725.34;642030;221;23689;-77
2021/04/22 05:22:44;;;;;;;13.67;5.30;;;;;;;7.49;82.23;100733.45;640446;222;24872;-75
2021/04/22 05:25:12;;;;;;;7.60;5.00;;;;;;;7.41;82.61;100736.58;646347;221;24766;-75
2021/04/22 05:27:40;;;;;;;15.70;4.80;;;;;;;7.34;82.29;100740.57;646780;221;24742;-76
2021/04/22 05:30:10;;;;;;;15.40;5.20;;;;;;;7.45;82.17;100741.06;639593;222;24828;-76
2021/04/22 05:32:39;;;;;;;10.33;4.03;;;;;;;7.45;81.74;100751.41;641523;222;24781;-76
2021/04/22 05:35:07;;;;;;;14.33;4.73;;;;;;;7.42;82.13;100748.58;639469;221;26960;-76
2021/04/22 05:37:35;;;;;;;11.67;5.07;;;;;;;7.44;80.21;100749.77;640520;222;24917;-77
2021/04/22 05:40:03;;;;;;;12.70;5.10;;;;;;;7.42;80.24;100742.58;653779;218;24773;-77
2021/04/22 05:42:31;;;;;;;7.97;5.20;;;;;;;7.51;80.31;100756.16;640306;221;24832;-77
2021/04/22 05:44:59;;;;;;;21.67;4.80;;;;;;;7.61;80.65;100762.32;642376;220;32485;-77
2021/04/22 05:47:27;;;;;;;11.53;4.50;;;;;;;7.65;79.92;100757.27;648432;221;24893;-77
2021/04/22 05:49:55;;;;;;;8.80;4.03;;;;;;;7.57;78.43;100762.63;628008;225;24862;-76
2021/04/22 05:52:23;;;;;;;12.97;4.50;;;;;;;7.61;78.13;100764.91;640395;222;24790;-77
2021/04/22 05:54:51;;;;;;;14.07;4.93;;;;;;;7.71;78.94;100776.22;644482;222;26948;-76
2021/04/22 05:57:19;;;;;;;14.70;4.40;;;;;;;7.80;77.98;100767.42;652419;218;24749;-76
2021/04/22 05:59:47;;;;;;;8.27;3.17;;;;;;;7.72;77.41;100777.04;648350;221;24740;-74
2021/04/22 06:02:15;;;;;;;15.07;3.80;;;;;;;7.59;77.85;100771.94;640884;220;24823;-74
2021/04/22 06:04:43;;;;;;;8.80;4.13;;;;;;;7.59;76.95;100775.81;643836;221;24836;-77
2021/04/22 06:07:11;;;;;;;16.20;3.53;;;;;;;7.58;77.25;100781.94;640163;220;24830;-76
2021/04/22 06:09:39;;;;;;;11.77;4.43;;;;;;;7.73;77.29;100784.69;638398;220;32790;-77
2021/04/22 06:12:08;;;;;;;9.17;3.80;;;;;;;7.68;76.26;100790.69;640781;221;24800;-76
2021/04/22 06:14:36;;;;;;;9.73;4.23;;;;;;;7.56;76.24;100790.75;639735;221;26950;-76
2021/04/22 06:17:04;;;;;;;10.27;3.97;;;;;;;7.53;76.70;100795.69;644167;221;24848;-76
2021/04/22 06:19:32;;;;;;;7.67;3.40;;;;;;;7.55;76.69;100802.87;642687;220;24802;-76
2021/04/22 06:22:00;;;;;;;9.87;3.10;;;;;;;7.49;76.57;100799.44;642476;222;24840;-76
2021/04/22 06:24:28;;;;;;;4.80;2.57;;;;;;;7.70;76.54;100803.05;646477;222;24792;-74
2021/04/22 06:26:56;;;;;;;8.93;3.03;;;;;;;7.76;74.50;100799.67;648774;221;24826;-75
2021/04/22 06:29:24;;;;;;;9.80;2.90;;;;;;;7.89;75.09;100793.95;641844;221;24797;-77
2021/04/22 06:31:51;;;;;;;6.90;3.50;;;;;;;7.81;75.96;100805.33;641989;221;24822;-77
2021/04/22 06:34:19;;;;;;;15.97;4.97;;;;;;;7.68;75.03;100799.75;644909;222;24819;-77
2021/04/22 06:36:47;;;;;;;6.37;3.10;;;;;;;7.68;75.78;100811.39;641522;222;24816;-77
2021/04/22 06:39:15;;;;;;;7.03;3.50;;;;;;;7.67;76.63;100809.75;647929;218;30163;-77
2021/04/22 06:41:43;;;;;;;7.40;3.43;;;;;;;7.85;76.48;100814.04;647992;218;24757;-76
2021/04/22 06:44:11;;;;;;;10.40;3.57;;;;;;;8.04;75.17;100815.65;653305;218;24766;-75
2021/04/22 06:46:39;;;;;;;13.60;4.27;;;;;;;8.13;74.70;100824.95;652850;218;24790;-75
2021/04/22 06:49:07;;;;;;;8.13;3.50;;;;;;;8.11;73.23;100828.12;654215;217;27942;-75
2021/04/22 06:51:35;;;;;;;11.40;2.63;;;;;;;8.22;73.28;100818.62;645440;219;24756;-75
2021/04/22 06:54:04;;;;;;;11.13;3.70;;;;;;;8.08;72.93;100819.30;642359;222;24834;-77
2021/04/22 06:56:31;;;;;;;10.13;3.30;;;;;;;8.24;73.50;100826.28;641715;222;24852;-77
2021/04/22 06:59:01;;;;;;;9.70;3.23;;;;;;;8.30;72.79;100824.07;645316;221;24843;-77
2021/04/22 07:01:29;;;;;;;7.37;3.23;;;;;;;8.27;70.79;100816.97;647504;222;24736;-75
2021/04/22 07:03:57;;;;;;;9.53;4.13;;;;;;;8.16;71.34;100822.12;651299;218;24757;-75
2021/04/22 07:06:24;;;;;;;14.80;3.53;;;;;;;8.22;71.26;100822.52;651468;218;24751;-77
2021/04/22 07:08:53;;;;;;;13.10;3.20;;;;;;;8.28;70.76;100825.92;642496;221;24934;-77
2021/04/22 07:11:21;;;;;;;12.18;3.70;;;;;;;8.36;71.37;100833.64;638131;221;32714;-77
2021/04/22 07:13:48;;;;;;;12.90;3.63;;;;;;;8.33;70.94;100830.31;645711;221;26875;-76
2021/04/22 07:16:16;;;;;;;11.77;3.67;;;;;;;8.51;72.10;100835.06;638916;221;24852;-77
2021/04/22 07:18:44;;;;;;;11.70;3.17;;;;;;;8.58;70.41;100840.95;639301;222;24788;-77
2021/04/22 07:21:12;;;;;;;9.03;3.17;;;;;;;8.29;69.56;100834.52;641703;221;24789;-77
2021/04/22 07:23:40;;;;;;;12.87;3.00;;;;;;;8.20;69.48;100837.35;651714;217;24796;-77
2021/04/22 07:26:08;;;;;;;11.28;3.40;;;;;;;8.21;68.44;100839.00;638603;221;32728;-77
2021/04/22 07:28:36;;;;;;;14.87;3.47;;;;;;;8.16;68.54;100847.56;637065;221;32701;-77
2021/04/22 07:31:04;;;;;;;14.43;3.67;;;;;;;8.15;68.58;100831.66;641909;221;23671;-77
2021/04/22 07:33:32;;;;;;;10.57;2.70;;;;;;;8.20;68.52;100845.12;644607;221;24804;-76
2021/04/22 07:36:00;;;;;;;10.30;3.20;;;;;;;8.17;69.25;100840.17;652276;217;24784;-76
2021/04/22 07:38:28;;;;;;;12.13;3.60;;;;;;;8.18;69.46;100853.95;652950;217;24771;-75
2021/04/22 07:40:56;;;;;;;9.70;2.87;;;;;;;8.42;68.09;100857.78;643263;221;24820;-75
2021/04/22 07:43:24;;;;;;;9.83;2.60;;;;;;;8.71;66.59;100855.58;639781;221;24836;-76
2021/04/22 07:45:52;;;;;;;11.17;3.17;;;;;;;9.01;68.25;100867.52;643794;221;24793;-77
2021/04/22 07:48:20;;;;;;;16.83;3.10;;;;;;;9.22;67.60;100858.52;641765;221;24955;-77
2021/04/22 07:50:48;;;;;;;14.07;3.50;;;;;;;8.86;65.19;100856.52;637465;221;32686;-77
2021/04/22 07:53:15;;;;;;;8.77;3.17;;;;;;;8.69;65.65;100851.81;644367;220;25959;-75
2021/04/22 07:55:44;;;;;;;12.30;3.93;;;;;;;8.76;66.63;100854.77;641098;222;24785;-77
2021/04/22 07:58:11;;;;;;;9.90;3.07;;;;;;;8.95;65.89;100850.28;645836;221;24850;-77
2021/04/22 08:00:39;;;;;;;10.70;3.60;;;;;;;9.20;65.66;100850.02;630654;222;43483;-74
2021/04/22 08:03:08;;;;;;;16.93;4.20;;;;;;;9.42;65.94;100851.73;651901;217;43319;-76
2021/04/22 08:05:36;;;;;;;13.30;3.60;;;;;;;9.26;64.02;100844.81;653231;217;23696;-76
2021/04/22 08:08:04;;;;;;;12.27;3.10;;;;;;;8.81;64.13;100831.42;657486;217;24839;-77
2021/04/22 08:10:32;;;;;;;8.07;3.17;;;;;;;8.43;64.67;100855.55;654394;214;24740;-76
2021/04/22 08:13:02;;;;;;;9.50;3.10;;;;;;;8.49;64.89;100844.73;650495;217;24794;-76
2021/04/22 08:15:28;;;;;;;12.10;3.57;;;;;;;8.71;66.01;100852.52;652193;217;24761;-77
2021/04/22 08:17:56;;;;;;;13.80;3.50;;;;;;;9.11;64.73;100862.41;654706;217;24791;-75
2021/04/22 08:20:25;;;;;;;13.83;3.47;;;;;;;8.88;64.03;100852.54;650748;217;24755;-76
2021/04/22 08:22:52;;;;;;;12.70;3.70;;;;;;;9.09;64.41;100853.92;660685;217;24766;-77
2021/04/22 08:25:20;;;;;;;14.00;3.57;;;;;;;9.06;63.32;100857.59;653136;217;24754;-76
2021/04/22 08:27:48;;;;;;;16.03;3.50;;;;;;;9.00;63.82;100850.73;651472;217;24787;-77
2021/04/22 08:30:17;;;;;;;12.73;3.30;;;;;;;9.20;63.26;100850.02;661032;215;24787;-77
2021/04/22 08:32:45;;;;;;;12.87;3.47;;;;;;;9.34;62.42;100847.17;650641;218;24770;-76
2021/04/22 08:35:14;;;;;;;12.50;3.50;;;;;;;9.35;61.79;100855.30;656550;217;25010;-76
2021/04/22 08:37:42;;;;;;;8.37;3.30;;;;;;;9.55;61.73;100847.69;638957;221;26957;-77
2021/04/22 08:40:11;;;;;;;15.80;3.90;;;;;;;9.46;62.01;100856.58;644742;221;24838;-77
2021/04/22 08:42:40;;;;;;;10.10;3.10;;;;;;;9.41;62.01;100852.69;636179;221;24803;-77
2021/04/22 08:45:08;;;;;;;15.23;3.93;;;;;;;9.69;61.42;100846.11;640243;221;24813;-77
2021/04/22 08:47:36;;;;;;;13.20;2.70;;;;;;;9.80;60.03;100846.07;642135;221;24890;-77
2021/04/22 08:50:05;;;;;;;14.30;3.53;;;;;;;9.71;60.00;100845.50;643888;221;24809;-77
2021/04/22 08:52:33;;;;;;;10.10;3.60;;;;;;;9.80;59.97;100846.07;647269;218;24785;-77
2021/04/22 08:55:01;;;;;;;10.10;3.23;;;;;;;10.18;59.37;100852.52;647342;221;24759;-77
2021/04/22 08:57:29;;;;;;;11.40;3.53;;;;;;;10.19;59.53;100851.56;645452;222;24814;-77
2021/04/22 08:59:57;;;;;;;8.93;2.97;;;;;;;10.02;58.71;100839.48;653062;217;24853;-77
2021/04/22 09:02:25;;;;;;;13.90;4.47;;;;;;;9.94;59.00;100849.67;637032;221;24832;-77
2021/04/22 09:04:54;;;;;;;10.20;3.63;;;;;;;10.20;59.90;100844.11;642780;221;28037;-77
2021/04/22 09:07:21;;;;;;;10.90;3.93;;;;;;;10.41;59.65;100851.44;646649;221;24829;-75
2021/04/22 09:09:49;;;;;;;10.40;3.53;;;;;;;10.25;59.38;100848.47;642343;221;24814;-77
2021/04/22 09:12:17;;;;;;;12.77;4.00;;;;;;;10.28;58.94;100852.14;655300;217;24943;-76
2021/04/22 09:14:52;;;;;;;14.35;4.47;;;;;;;10.31;57.69;100855.78;647212;217;32555;-77
2021/04/22 09:17:20;;;;;;;7.30;3.57;;;;;;;10.20;57.08;100849.31;656223;217;23651;-77
2021/04/22 09:19:48;;;;;;;11.40;3.60;;;;;;;10.35;57.94;100866.27;651118;217;24752;-77
2021/04/22 09:22:16;;;;;;;15.27;3.77;;;;;;;10.17;56.53;100850.87;655024;217;24838;-77
2021/04/22 09:24:44;;;;;;;8.40;3.40;;;;;;;10.35;58.34;100857.16;655948;217;24800;-76
2021/04/22 09:27:13;;;;;;;11.70;3.27;;;;;;;10.43;57.04;100845.66;653220;217;24762;-76
2021/04/22 09:29:43;;;;;;;10.43;3.27;;;;;;;10.60;56.43;100838.55;659573;217;24766;-76
2021/04/22 09:32:11;;;;;;;8.03;3.27;;;;;;;10.52;56.51;100834.47;658716;217;24760;-75
2021/04/22 09:34:39;;;;;;;12.93;3.73;;;;;;;10.85;58.15;100839.08;657835;217;24771;-75
2021/04/22 09:37:07;;;;;;;10.57;3.50;;;;;;;10.96;57.37;100836.36;652094;217;24750;-75
2021/04/22 09:39:35;;;;;;;22.13;4.00;;;;;;;10.75;54.30;100835.61;657480;217;24796;-75
2021/04/22 09:42:05;;;;;;;11.63;3.50;;;;;;;10.80;54.12;100829.52;649846;216;25017;-75
2021/04/22 09:44:33;;;;;;;9.97;3.90;;;;;;;10.53;55.40;100819.69;649714;217;24780;-75
2021/04/22 09:47:05;;;;;;;15.67;3.87;;;;;;;10.34;56.99;100836.84;654031;217;24802;-76
2021/04/22 09:49:33;;;;;;;9.03;3.63;;;;;;;10.82;56.54;100836.23;661669;217;24749;-75
2021/04/22 09:52:07;;;;;;;11.20;3.80;;;;;;;11.06;55.28;100837.21;658907;217;24753;-75
2021/04/22 09:54:41;;;;;;;13.73;3.30;;;;;;;11.15;54.03;100837.73;657524;217;24767;-73
2021/04/22 09:57:09;;;;;;;12.97;4.20;;;;;;;11.47;52.97;100819.75;661226;217;24751;-75
2021/04/22 09:59:37;;;;;;;12.53;3.90;;;;;;;11.42;55.43;100827.16;650418;217;24765;-75
2021/04/22 10:02:05;;;;;;;15.07;3.83;;;;;;;11.23;54.75;100833.96;657158;217;24758;-76
2021/04/22 10:04:34;;;;;;;12.60;4.17;;;;;;;11.44;54.57;100826.55;656618;217;25073;-75
2021/04/22 10:07:02;;;;;;;11.00;3.30;;;;;;;11.87;52.34;100818.34;659026;217;24743;-75
2021/04/22 10:09:32;;;;;;;11.30;3.57;;;;;;;11.78;53.82;100832.98;654032;217;24764;-75
2021/04/22 10:12:01;;;;;;;14.23;3.53;;;;;;;11.75;52.79;100825.94;651830;217;24769;-75
2021/04/22 10:14:31;;;;;;;12.27;3.83;;;;;;;11.39;51.93;100823.02;655179;217;24865;-75
2021/04/22 10:16:59;;;;;;;12.03;3.77;;;;;;;11.40;52.40;100815.58;649127;217;24753;-76
2021/04/22 10:19:27;;;;;;;10.77;3.00;;;;;;;11.43;51.10;100819.20;651229;217;24806;-75
2021/04/22 10:21:55;;;;;;;11.63;4.30;;;;;;;11.71;51.59;100810.23;660226;217;24757;-75
2021/04/22 10:24:26;;;;;;;10.03;3.90;;;;;;;11.71;50.71;100800.64;649548;217;32539;-74
2021/04/22 10:26:59;;;;;;;11.50;3.60;;;;;;;11.52;50.93;100801.44;654896;217;24783;-75
2021/04/22 10:29:26;;;;;;;14.73;3.90;;;;;;;11.71;53.16;100802.42;652806;217;25114;-74
2021/04/22 10:31:56;;;;;;;11.43;4.40;;;;;;;12.04;51.95;100801.99;650919;217;34162;-75
2021/04/22 10:34:25;;;;;;;13.50;3.93;;;;;;;11.82;52.10;100796.63;650941;217;23826;-75
2021/04/22 10:36:52;;;;;;;10.77;3.80;;;;;;;11.77;54.59;100805.28;657413;217;24808;-75
2021/04/22 10:39:20;;;;;;;8.33;3.10;;;;;;;11.88;50.68;100799.96;655938;217;24763;-74
2021/04/22 10:41:48;;;;;;;10.20;4.03;;;;;;;11.95;47.42;100792.87;657121;217;24815;-76
2021/04/22 10:44:16;;;;;;;10.33;3.30;;;;;;;12.07;49.67;100785.24;657201;217;25033;-75
2021/04/22 10:46:44;;;;;;;8.93;3.20;;;;;;;12.27;50.13;100785.55;658548;217;26940;-77
2021/04/22 10:49:12;;;;;;;19.50;4.50;;;;;;;12.50;51.10;100788.61;652697;217;24765;-76
2021/04/22 10:51:41;;;;;;;8.97;3.37;;;;;;;12.58;49.70;100783.52;655598;217;24784;-75
2021/04/22 10:54:09;;;;;;;13.50;3.17;;;;;;;12.77;47.78;100777.37;652717;216;25909;-75
2021/04/22 10:56:37;;;;;;;8.67;2.97;;;;;;;12.48;46.29;100773.10;654044;217;24753;-75
2021/04/22 10:59:05;;;;;;;11.90;3.80;;;;;;;12.40;48.28;100779.54;650360;217;32545;-76
2021/04/22 11:01:34;;;;;;;10.30;3.33;;;;;;;12.46;49.33;100780.26;652531;217;24750;-76
2021/04/22 11:04:05;;;;;;;20.60;3.77;;;;;;;12.44;47.13;100771.76;659678;217;25113;-73
2021/04/22 11:06:34;;;;;;;11.48;4.12;;;;;;;12.70;48.59;100767.19;650129;217;32737;-75
2021/04/22 11:09:11;;;;;;;8.27;2.90;;;;;;;12.45;48.17;100765.58;658132;217;23684;-74
2021/04/22 11:11:39;;;;;;;8.33;3.00;;;;;;;12.34;48.26;100755.80;653024;217;24776;-75
2021/04/22 11:14:07;;;;;;;10.50;3.70;;;;;;;12.59;49.46;100766.89;641396;221;24852;-74
2021/04/22 11:16:34;;;;;;;11.40;3.80;;;;;;;12.87;45.97;100770.31;635301;221;32772;-75
2021/04/22 11:19:03;;;;;;;8.18;3.50;;;;;;;12.75;45.61;100766.26;650295;217;42564;-75
2021/04/22 11:21:31;;;;;;;14.17;3.47;;;;;;;12.66;44.38;100764.02;648625;217;24766;-75
2021/04/22 11:23:59;;;;;;;8.70;3.70;;;;;;;13.03;47.23;100765.27;649728;217;24802;-73